Aktualne dane pomiarowe

Uwaga, wersja testowa! Automatyczne pobieranie danych za pomocą narzędzi lub skryptów to umożliwiających jest zabronione.

Dane meteo z obszaru Polski uzyskane na podstawie depesz SYNOP pobieranych co godzinę z NWS. Najedź myszką na symbol przedstawiony w tabeli, aby uzyskać informacje co do jego znaczenia. Prosimy pamiętać, że to testowa wersja strony, która jeszcze nie jest ukończona. Stworzono również jest krótki FAQ dotyczący korzystania z tej podstrony Anomalie temperatury w chwili obecnej odniesione są do okresu referencyjnego 1951-2016. Okres ten będzie później zmieniony na 1981-2010. Kliknij ikonę aby pobrać plik CSV. Kliknij ikonę aby wygenerować mapę synoptyczną dla danego terminu.

Wybierz Datę:    

        

Kielce-Suków (12570)

Dane terminowe dla wybranej stacji. Kliknij datę, aby otrzymać dane z tego terminu dla wszystkich stacji.

TemperaturaZachmurzenieWiatrCiśnienieOpadyPogoda
 Data t td wb tx tn tg rh  Nt Nl Cl Cm Ch ws wd g1 g2 wx mslp ppp ch 24h 12h t ww ww w1 w2  
2019-06-19 23:00:00 16.6 15.8 16.0--- 9520.0wx-wx1wx---1011.8 981.1 -0.5---------
2019-06-19 22:00:00 16.5 15.9 16.0--- 9620.0wx-wxwx2wx---1012.1 981.4 -0.6---------
2019-06-19 21:00:00 17.3 16.8 16.9--- 9715.0wx-wxwx1wx--11012.4 981.8 -0.1---------
2019-06-19 20:00:00 18.7 16.1 16.9--- 8535.0wxwxwxwxwx1wx--11012.0 981.6 -0.5---------
2019-06-19 19:00:00 19.9 16.3 17.4--- 8045.0wxwxwxwxwx1wx--11012.3 982.0 0.7---------
2019-06-19 18:00:00 21.1 17.7 18.7 29.3 17.2- 8135.0wxwxwxwxwx3wx-1531012.1 981.9 -0.4- 8.012wx-w1w2--
2019-06-19 17:00:00 20.5 17.3 18.2--- 8230.0wxwxwxwxwx4wx--41012.4 982.1 0.6---wx-w1--
2019-06-19 16:00:00 19.9 18.9 19.2--- 9416.0wxwxwxwxwx2wx-1021011.6 981.3 -0.7---wx-w1w2--
2019-06-19 15:00:00 17.2 14.8 15.5--- 861.5wxwxwx7wx15--1012.9 982.3 -0.2---wx-w1--
2019-06-19 14:00:00 27.7 15.7 20.0--- 4829.0wxwxwxwxwx3wx--31011.0 981.5 -1.7---wx---
2019-06-19 13:00:00 28.9 16.1 20.7--- 4626.0wxwxwxwxwx4wx--41011.4 982.0 -1.7---wx---
2019-06-19 12:00:00 27.8 16.4 20.4--- 5025.0wxwxwxwxwx3wx--31012.0 982.5 -1.5- 0.06wx---
2019-06-19 11:00:00 27.7 16.9 20.6--- 5223.0wxwxwxwxwx3wx--31012.8 983.2 -1.2---------
2019-06-19 10:00:00 26.8 17.6 20.7--- 5725.0wxwxwxwx3wx--31013.4 983.7 -0.8---------
2019-06-19 09:00:00 25.6 18.0 20.5--- 6320.0wxwxwxwxwx2wx--21013.8 984.0 -0.9---------
2019-06-19 08:00:00 23.9 18.5 20.2--- 7214.0wxwxwxwxwx3wx---1014.4 984.4 -0.4---------
2019-06-19 07:00:00 22.8 18.1 19.5--- 7518.0wxwxwxwxwx2wx--21014.6 984.5 -0.3---------
2019-06-19 06:00:00 21.3 17.3 18.5 22.3 17.5 16 7817.0wxwxwxwxwx3wx--31015.2 984.9 -0.1- 0.012----- 8.1
2019-06-19 05:00:00 21.2 17.6 18.7--- 8021.0wxwxwxwxwx2wx--21015.1 984.8 -0.4---------
2019-06-19 04:00:00 18.8 16.4 17.1--- 8627.0wx-wxwx2wx--21015.3 984.8 -0.8---------
2019-06-19 03:00:00 17.6 15.9 16.4--- 9022.0wxwxwxwxwx1wx--11015.7 985.0 -0.9---------
2019-06-19 02:00:00 18.1 15.9 16.5--- 8727.0wxwxwx1wx--11015.8 985.2 -1.1---------
2019-06-19 01:00:00 18.1 16.1 16.7--- 8828.0wxwxwx1wx--11016.2 985.6 -1.0---------
2019-06-19 00:00:00 17.8 16.0 16.5--- 8930.0wxwxwx2wx--21016.6 985.9 -1.1- 0.06------
2019-06-18 23:00:00 17.9 15.9 16.5--- 8830.0wx-wxwx1wx--11017.0 986.3 -0.8---------
2019-06-18 22:00:00 18.2 15.8 16.5--- 8635.0wx-wx1wx---1017.3 986.6 -0.4---------
2019-06-18 21:00:00 17.8 15.6 16.2--- 8729.0wx-wxwx1wx--11017.7 987.0 0.2---------
2019-06-18 20:00:00 18.7 15.6 16.5--- 8230.0wxwxwxwxwx1wx--11017.7 987.1 0.1---------
2019-06-18 19:00:00 20.0 15.8 17.1--- 7740.0wxwxwxwxwx1wx--11017.5 987.0 -0.2---------
2019-06-18 18:00:00 22.3 15.6 17.9 24.5 20.0- 6645.0wxwxwxwxwx2wx--21017.0 986.8 -0.8- 0.012------
2019-06-18 17:00:00 23.3 14.0 17.4--- 5635.0wxwxwxwxwx3wx---1017.1 987.0 -1.2---------
2019-06-18 16:00:00 23.6 14.9 18.0--- 5840.0wxwxwxwxwx3wx--31017.3 987.2 -1.4---------
2019-06-18 15:00:00 23.3 15.6 18.3--- 6245.0wxwxwxwx3wx---1017.8 987.6 -1.4---------
2019-06-18 14:00:00 23.1 15.2 18.0--- 6140.0wxwxwxwx3wx--31018.4 988.2 -1.0---------
2019-06-18 13:00:00 23.0 14.6 17.6--- 5945.0wxwxwxwx3wx--31018.8 988.6 -0.8---------
2019-06-18 12:00:00 23.3 15.1 18.0--- 6045.0wxwxwx3wx--31019.2 989.0 -0.8- 0.06------
2019-06-18 11:00:00 23.3 14.0 17.4--- 5645.0wxwxwx2wx--21019.4 989.2 -0.8---------
2019-06-18 10:00:00 22.7 14.3 17.3--- 5945.0wxwxwx3wx--31019.7 989.4 -0.8---------
2019-06-18 09:00:00 21.9 14.3 17.0--- 6245.0wxwxwxwx4wx--41020.2 989.8 -0.5---------
2019-06-18 08:00:00 22.6 14.9 17.6--- 6240.0wxwxwxwx3wx--31020.3 990.0 -0.1---------
2019-06-18 07:00:00 21.5 15.3 17.4--- 6835.0wxwxwxwx3wx---1020.6 990.2 0.3---------
2019-06-18 06:00:00 20.0 14.8 16.5 21.6 12.7 11 7230.0wxwxwxwx3wx---1020.9 990.3 0.3-------- 5.9
2019-06-18 05:00:00 18.6 15.3 16.3--- 8129.0wx-wx2wx--21020.8 990.1 0.2---------
2019-06-18 04:00:00 15.9 14.3 14.8--- 9027.0wx-wx1wx--11020.9 989.9 -0.1---------
2019-06-18 03:00:00 14.1 13.1 13.4--- 9424.0wx-wx2wx--21021.2 990.0 -0.3---------
2019-06-18 02:00:00 14.1 12.8 13.2--- 9225.0wx-wxwx1wx---1021.1 989.9 -0.7---------
2019-06-18 01:00:00 13.8 13.0 13.2--- 9522.0wx-wx1wx---1021.2 990.0 -0.3---------
2019-06-18 00:00:00 12.9 11.8 12.1--- 9315.0wx-wx1wx--11021.7 990.3 0.0- 0.06------
3.5 ms

 

Print Friendly, PDF & Email